1875 Hurricane NOT_NAMED (1875243N14330)


IBTrACS version v04r00. Visit IBTrACS website for data access.
Please direct all questions to the IBTrACS Q and A forum

Storm track - Intensity - Wind Radii - Intensity Data - Source Data - All data

Summary Information

Storm ID 1875243N14330
Start Aug 30 12Z
Max Intensity 110 kt (Sep 4 00Z), 938 mb (Sep 4 00Z)
End Sep 11 18Z
ATCF IDs ,AL021875
Track status Best track data.

Storm track plot

Map of storm track

Intensity plots

Map of storm track

Radial wind information

No radial wind information for this storm


Position and Intensity Table

BASIN ISO_TIME_________ NATURE LAT LON WMO WIND WMO PRES USA WIND USA PRES MLC WIND MLC PRES
degrees north degrees east kts mb kts mb kts mb
NA 1875-08-30 12:00:00 TS 14.00 -30.00 30
NA 15:00:00 TS 14.00 -30.70 30
NA 18:00:00 TS 14.00 -31.40 30
NA 21:00:00 TS 14.00 -32.09 30
NA 1875-08-31 00:00:00 TS 14.00 -32.80 30
NA 03:00:00 TS 14.00 -33.56 30
NA 06:00:00 TS 14.00 -34.30 30
NA 09:00:00 TS 13.99 -34.96 30
NA 12:00:00 TS 14.00 -35.50 30
NA 15:00:00 TS 14.04 -35.89 32
NA 18:00:00 TS 14.10 -36.20 35
NA 21:00:00 TS 14.14 -36.51 37
NA 1875-09-01 00:00:00 TS 12.97 -36.53 40 40 40
NA 03:00:00 TS 12.40 -36.92 40 42
NA 06:00:00 TS 12.06 -37.46 40 40 45
NA 09:00:00 TS 11.84 -38.03 40 47
NA 12:00:00 TS 11.90 -38.67 40 40 50
NA 15:00:00 TS 12.00 -39.50 40 55
NA 18:00:00 TS 12.13 -40.40 40 40 60
NA 21:00:00 TS 12.26 -41.25 45 65
NA 1875-09-02 00:00:00 TS 12.40 -42.10 50 50 70
NA 03:00:00 TS 12.57 -42.95 50 72
NA 06:00:00 TS 12.77 -43.80 50 50 75
NA 09:00:00 TS 12.95 -44.69 55 77
NA 12:00:00 TS 13.17 -45.50 60 60 80
NA 15:00:00 TS 13.41 -46.14 60 85
NA 18:00:00 TS 13.70 -46.70 60 60 90
NA 21:00:00 TS 14.02 -47.28 65 92
NA 1875-09-03 00:00:00 TS 14.37 -47.83 70 70 95
NA 03:00:00 TS 14.70 -48.34 70 97
NA 06:00:00 TS 15.03 -48.83 70 70 100
NA 09:00:00 TS 15.34 -49.34 70 100
NA 12:00:00 TS 15.67 -49.83 70 70 100
NA 15:00:00 TS 16.05 -50.32 70 100
NA 18:00:00 TS 16.47 -50.80 70 70 100
NA 21:00:00 TS 16.89 -51.29 70 105
NA 1875-09-04 00:00:00 TS 17.30 -51.77 70 70 110 938
NA 03:00:00 TS 17.67 -52.22 70 110
NA 06:00:00 TS 18.03 -52.67 70 70 110
NA 09:00:00 TS 18.45 -53.11 70 110
NA 12:00:00 TS 18.87 -53.53 70 70 110
NA 15:00:00 TS 19.20 -53.94 70 110
NA 18:00:00 TS 19.53 -54.33 70 70 110
NA 21:00:00 TS 19.91 -54.74 70 110
NA 1875-09-05 00:00:00 TS 20.30 -55.13 70 70 110
NA 03:00:00 TS 20.67 -55.51 70 110
NA 06:00:00 TS 21.03 -55.87 70 70 110
NA 09:00:00 TS 21.37 -56.20 70 110
NA 12:00:00 TS 21.70 -56.50 70 70 110
NA 15:00:00 TS 22.03 -56.79 70 110
NA 18:00:00 TS 22.37 -57.07 70 70 110
NA 21:00:00 TS 22.71 -57.37 70 110
NA 1875-09-06 00:00:00 TS 23.03 -57.67 70 70 110
NA 03:00:00 TS 23.30 -57.94 70 102
NA 06:00:00 TS 23.57 -58.20 70 982 70 982 95 982
NA 09:00:00 TS 23.88 -58.43 70 92
NA 12:00:00 TS 24.27 -58.67 70 70 90
NA 15:00:00 TS 24.73 -58.97 70 87
NA 18:00:00 TS 25.23 -59.27 70 70 85
NA 21:00:00 TS 25.73 -59.48 70 85
NA 1875-09-07 00:00:00 TS 26.20 -59.63 70 70 85
NA 03:00:00 TS 26.59 -59.76 70 82
NA 06:00:00 TS 27.03 -59.83 70 70 80
NA 09:00:00 TS 27.61 -59.91 70 77
NA 12:00:00 TS 28.30 -59.90 70 70 75
NA 15:00:00 TS 29.03 -59.78 70 75
NA 18:00:00 TS 29.83 -59.57 70 70 75
NA 21:00:00 TS 30.69 -59.31 70 72
NA 1875-09-08 00:00:00 TS 31.57 -58.97 70 70 70
NA 03:00:00 TS 32.42 -58.52 70 70
NA 06:00:00 TS 33.23 -58.03 70 70 70
NA 09:00:00 TS 33.97 -57.62 70 70
NA 12:00:00 TS 34.67 -57.13 70 70 70
NA 15:00:00 TS 35.38 -56.46 70 70
NA 18:00:00 TS 36.10 -55.67 70 70 70
NA 21:00:00 TS 36.83 -54.82 70 70
NA 1875-09-09 00:00:00 TS 37.57 -53.90 70 70 70
NA 03:00:00 TS 38.30 -52.91 70 70
NA 06:00:00 TS 39.03 -51.90 70 70 70
NA 09:00:00 TS 39.80 -50.92 70 70
NA 12:00:00 TS 40.53 -50.00 70 70 70
NA 15:00:00 TS 41.15 -49.16 70 70
NA 18:00:00 TS 41.77 -48.37 70 70 70
NA 21:00:00 TS 42.52 -47.56 70 70
NA 1875-09-10 00:00:00 TS 43.30 -46.77 70 70 70
NA 03:00:00 TS 43.98 -45.99 70 67
NA 06:00:00 TS 44.67 -45.20 70 70 65
NA 09:00:00 TS 45.41 -44.34 70 65
NA 12:00:00 TS 46.20 -43.36 70 70 65
NA 15:00:00 TS 46.97 -42.15 70 65
NA 18:00:00 TS 47.70 -40.47 70 70 65
NA 21:00:00 TS 48.42 -37.65 65
NA 1875-09-11 00:00:00 TS 49.00 -36.00 65
NA 03:00:00 TS 49.51 -34.06 65
NA 06:00:00 TS 50.00 -32.00 65
NA 09:00:00 TS 50.50 -30.00 62
NA 12:00:00 ET 51.00 -28.00 60
NA 15:00:00 ET 51.51 -26.01 60
NA 18:00:00 ET 52.00 -24.00 60

Source Information

Agency Information
USA hurdat2-1851-2019-042820.txt:Line=2862:UNNAMED
TOKYO
CMA
HKO
NEWDELHI
REUNION
BOM
NADI
WELLINGTON
DS824
TD9636
TD9635
NEUMANN
MLC

All available IBTrACS Data

SEASON BASIN SUBBASIN ISO_TIME_________ NATURE LAT LON WMO WIND WMO PRES WMO AGENCY DIST2LAND LANDFALL IFLAG USA AGENCY USA ATCF_ID USA LAT USA LON USA STATUS USA WIND USA PRES USA SSHS MLC LAT MLC LON MLC CLASS MLC WIND MLC PRES STORM SPEED STORM DIR
Year degrees north degrees east kts mb km km degrees north degrees east kts mb 1 degrees north degrees east kts mb kts degrees
1875 NA NA 1875-08-30 12:00:00 TS 14.00 -30.00 1349 1349 _____________O -1 14.00 -30.00 TD 30 14 270
1875 NA NA 15:00:00 TS 14.00 -30.70 1424 1424 _____________P -1 14.00 -30.70 TD 30 14 270
1875 NA NA 18:00:00 TS 14.00 -31.40 1499 1499 _____________O -1 14.00 -31.40 TD 30 14 270
1875 NA NA 21:00:00 TS 14.00 -32.09 1575 1575 _____________P -1 14.00 -32.09 TD 30 14 270
1875 NA NA 1875-08-31 00:00:00 TS 14.00 -32.80 1650 1650 _____________O -1 14.00 -32.80 TD 30 14 270
1875 NA NA 03:00:00 TS 14.00 -33.56 1736 1736 _____________P -1 14.00 -33.56 TD 30 15 270
1875 NA NA 06:00:00 TS 14.00 -34.30 1811 1811 _____________O -1 14.00 -34.30 TD 30 14 270
1875 NA NA 09:00:00 TS 13.99 -34.96 1887 1887 _____________P -1 13.99 -34.96 TD 30 12 270
1875 NA NA 12:00:00 TS 14.00 -35.50 1941 1941 _____________O -1 14.00 -35.50 TD 30 9 273
1875 NA NA 15:00:00 TS 14.04 -35.89 1941 1941 _____________P -1 14.04 -35.89 TD 32 7 278
1875 NA NA 18:00:00 TS 14.10 -36.20 1945 1943 _____________O -1 14.10 -36.20 TS 35 6 280
1875 NA NA 21:00:00 TS 14.14 -36.51 1939 1818 _____________P -1 14.14 -36.51 TS 37 12 196
1875 NA NA 1875-09-01 00:00:00 TS 12.97 -36.53 40 hurdat_atl 1818 1743 O____________O hurdat_atl AL021875 10.50 -36.00 TS 40 0 14.20 -36.80 TS 40 18 193
1875 NA NA 03:00:00 TS 12.40 -36.92 1743 1701 P____________P AL021875 10.49 -36.75 TS 40 0 14.30 -37.10 TS 42 13 225
1875 NA NA 06:00:00 TS 12.06 -37.46 40 hurdat_atl 1699 1659 O____________O hurdat_atl AL021875 10.50 -37.50 TS 40 0 14.40 -37.40 TS 45 12 243
1875 NA NA 09:00:00 TS 11.84 -38.03 1659 1637 P____________P AL021875 10.53 -38.25 TS 40 0 14.44 -37.58 TS 47 12 262
1875 NA NA 12:00:00 TS 11.90 -38.67 40 hurdat_atl 1627 1568 O____________O hurdat_atl AL021875 10.60 -39.00 TS 40 0 14.50 -38.00 TS 50 14 277
1875 NA NA 15:00:00 TS 12.00 -39.50 1559 1484 P____________P AL021875 10.68 -39.75 TS 40 0 14.64 -38.99 TS 55 17 278
1875 NA NA 18:00:00 TS 12.13 -40.40 40 hurdat_atl 1484 1420 O____________O hurdat_atl AL021875 10.80 -40.50 TS 40 0 14.80 -40.20 TS 60 17 278
1875 NA NA 21:00:00 TS 12.26 -41.25 1419 1359 P____________P AL021875 10.93 -41.25 TS 45 0 14.90 -41.26 TS 65 17 279
1875 NA NA 1875-09-02 00:00:00 TS 12.40 -42.10 50 hurdat_atl 1359 1310 O____________O hurdat_atl AL021875 11.10 -42.00 TS 50 0 15.00 -42.30 HU 70 17 281
1875 NA NA 03:00:00 TS 12.57 -42.95 1302 1258 P____________P AL021875 11.28 -42.75 TS 50 0 15.15 -43.35 HU 72 17 282
1875 NA NA 06:00:00 TS 12.77 -43.80 50 hurdat_atl 1259 1212 O____________O hurdat_atl AL021875 11.50 -43.50 TS 50 0 15.30 -44.40 HU 75 17 283
1875 NA NA 09:00:00 TS 12.95 -44.69 1214 1179 P____________P AL021875 11.73 -44.27 TS 55 0 15.39 -45.53 HU 77 17 284
1875 NA NA 12:00:00 TS 13.17 -45.50 60 hurdat_atl 1183 1160 O____________O hurdat_atl AL021875 12.00 -45.00 TS 60 0 15.50 -46.50 HU 80 15 288
1875 NA NA 15:00:00 TS 13.41 -46.14 1162 1148 P____________P AL021875 12.28 -45.67 TS 60 0 15.68 -47.08 HU 85 13 295
1875 NA NA 18:00:00 TS 13.70 -46.70 60 hurdat_atl 1151 1140 O____________O hurdat_atl AL021875 12.60 -46.30 TS 60 0 15.90 -47.50 HU 90 13 299
1875 NA NA 21:00:00 TS 14.02 -47.28 1144 1142 P____________P AL021875 12.98 -46.92 TS 65 1 16.10 -48.00 HU 92 13 301
1875 NA NA 1875-09-03 00:00:00 TS 14.37 -47.83 70 hurdat_atl 1156 1146 O____________O hurdat_atl AL021875 13.40 -47.50 HU 70 1 16.30 -48.50 HU 95 12 303
1875 NA NA 03:00:00 TS 14.70 -48.34 1162 1157 P____________P AL021875 13.80 -48.02 HU 70 1 16.51 -49.00 HU 97 12 305
1875 NA NA 06:00:00 TS 15.03 -48.83 70 hurdat_atl 1171 1171 O____________O hurdat_atl AL021875 14.20 -48.50 HU 70 1 16.70 -49.50 MH 100 12 304
1875 NA NA 09:00:00 TS 15.34 -49.34 1181 1181 P____________P AL021875 14.59 -49.00 HU 70 1 16.83 -50.01 MH 100 12 303
1875 NA NA 12:00:00 TS 15.67 -49.83 70 hurdat_atl 1198 1193 O____________O hurdat_atl AL021875 15.00 -49.50 HU 70 1 17.00 -50.50 MH 100 12 307
1875 NA NA 15:00:00 TS 16.05 -50.32 1218 1215 P____________P AL021875 15.43 -50.00 HU 70 1 17.28 -50.96 MH 100 12 311
1875 NA NA 18:00:00 TS 16.47 -50.80 70 hurdat_atl 1243 1240 O____________O hurdat_atl AL021875 15.90 -50.50 HU 70 1 17.60 -51.40 MH 100 13 312
1875 NA NA 21:00:00 TS 16.89 -51.29 1256 1239 P____________P AL021875 16.41 -51.01 HU 70 1 17.85 -51.85 MH 105 12 312
1875 NA NA 1875-09-04 00:00:00 TS 17.30 -51.77 70 hurdat_atl 1237 1223 O____________O hurdat_atl AL021875 16.90 -51.50 HU 70 1 18.10 -52.30 MH 110 938 12 311
1875 NA NA 03:00:00 TS 17.67 -52.22 1230 1211 P____________P AL021875 17.30 -51.96 HU 70 1 18.40 -52.76 MH 110 11 311
1875 NA NA 06:00:00 TS 18.03 -52.67 70 hurdat_atl 1211 1210 O____________O hurdat_atl AL021875 17.70 -52.40 HU 70 1 18.70 -53.20 MH 110 12 313
1875 NA NA 09:00:00 TS 18.45 -53.11 1218 1210 P____________P AL021875 18.21 -52.86 HU 70 1 18.95 -53.61 MH 110 12 315
1875 NA NA 12:00:00 TS 18.87 -53.53 70 hurdat_atl 1221 1210 O____________O hurdat_atl AL021875 18.70 -53.30 HU 70 1 19.20 -54.00 MH 110 11 314
1875 NA NA 15:00:00 TS 19.20 -53.94 1219 1194 P____________P AL021875 19.06 -53.71 HU 70 1 19.48 -54.40 MH 110 10 311
1875 NA NA 18:00:00 TS 19.53 -54.33 70 hurdat_atl 1194 1155 O____________O hurdat_atl AL021875 19.40 -54.10 HU 70 1 19.80 -54.80 MH 110 10 313
1875 NA NA 21:00:00 TS 19.91 -54.74 1156 1119 P____________P AL021875 19.79 -54.49 HU 70 1 20.15 -55.23 MH 110 11 316
1875 NA NA 1875-09-05 00:00:00 TS 20.30 -55.13 70 hurdat_atl 1121 1086 O____________O hurdat_atl AL021875 20.20 -54.90 HU 70 1 20.50 -55.60 MH 110 11 316
1875 NA NA 03:00:00 TS 20.67 -55.51 1088 1063 P____________P AL021875 20.61 -55.36 HU 70 1 20.81 -55.82 MH 110 10 317
1875 NA NA 06:00:00 TS 21.03 -55.87 70 hurdat_atl 1056 1034 O____________O hurdat_atl AL021875 21.00 -55.80 HU 70 1 21.10 -56.00 MH 110 9 318
1875 NA NA 09:00:00 TS 21.37 -56.20 1038 1015 P____________P AL021875 21.36 -56.17 HU 70 1 21.40 -56.26 MH 110 9 319
1875 NA NA 12:00:00 TS 21.70 -56.50 70 hurdat_atl 1019 1002 O____________O hurdat_atl AL021875 21.70 -56.50 HU 70 1 21.70 -56.50 MH 110 9 320
1875 NA NA 15:00:00 TS 22.03 -56.79 1002 987 P____________P AL021875 22.05 -56.84 HU 70 1 22.00 -56.67 MH 110 9 322
1875 NA NA 18:00:00 TS 22.37 -57.07 70 hurdat_atl 992 979 O____________O hurdat_atl AL021875 22.40 -57.20 HU 70 1 22.30 -56.80 MH 110 9 321
1875 NA NA 21:00:00 TS 22.71 -57.37 979 969 P____________P AL021875 22.77 -57.61 HU 70 1 22.60 -56.88 MH 110 9 320
1875 NA NA 1875-09-06 00:00:00 TS 23.03 -57.67 70 hurdat_atl 969 963 O____________O hurdat_atl AL021875 23.10 -58.00 HU 70 1 22.90 -57.00 MH 110 8 318
1875 NA NA 03:00:00 TS 23.30 -57.94 969 956 P____________P AL021875 23.36 -58.27 HU 70 1 23.18 -57.28 MH 102 7 317
1875 NA NA 06:00:00 TS 23.57 -58.20 70 982 hurdat_atl 962 954 O____________O hurdat_atl AL021875 23.60 -58.50 HU 70 982 1 23.50 -57.60 HU 95 982 7 323
1875 NA NA 09:00:00 TS 23.88 -58.43 966 958 P____________P AL021875 23.86 -58.74 HU 70 1 23.93 -57.82 HU 92 8 329
1875 NA NA 12:00:00 TS 24.27 -58.67 70 hurdat_atl 972 971 O____________O hurdat_atl AL021875 24.20 -59.00 HU 70 1 24.40 -58.00 HU 90 10 330
1875 NA NA 15:00:00 TS 24.73 -58.97 980 980 P____________P AL021875 24.67 -59.35 HU 70 1 24.85 -58.22 HU 87 11 331
1875 NA NA 18:00:00 TS 25.23 -59.27 70 hurdat_atl 1000 1000 O____________O hurdat_atl AL021875 25.20 -59.70 HU 70 1 25.30 -58.40 HU 85 11 335
1875 NA NA 21:00:00 TS 25.73 -59.48 1029 1029 P____________P AL021875 25.71 -59.98 HU 70 1 25.75 -58.48 HU 85 10 341
1875 NA NA 1875-09-07 00:00:00 TS 26.20 -59.63 70 hurdat_atl 1067 1067 O____________O hurdat_atl AL021875 26.20 -60.20 HU 70 1 26.20 -58.50 HU 85 9 344
1875 NA NA 03:00:00 TS 26.59 -59.76 1092 1092 P____________P AL021875 26.58 -60.38 HU 70 1 26.61 -58.51 HU 82 9 348
1875 NA NA 06:00:00 TS 27.03 -59.83 70 hurdat_atl 1129 1129 O____________O hurdat_atl AL021875 27.00 -60.50 HU 70 1 27.10 -58.50 HU 80 10 353
1875 NA NA 09:00:00 TS 27.61 -59.91 1181 1181 P____________P AL021875 27.54 -60.61 HU 70 1 27.76 -58.50 HU 77 13 357
1875 NA NA 12:00:00 TS 28.30 -59.90 70 hurdat_atl 1249 1249 O____________O hurdat_atl AL021875 28.20 -60.60 HU 70 1 28.50 -58.50 HU 75 14 5
1875 NA NA 15:00:00 TS 29.03 -59.78 1322 1322 P____________P AL021875 28.95 -60.42 HU 70 1 29.20 -58.50 HU 75 16 11
1875 NA NA 18:00:00 TS 29.83 -59.57 70 hurdat_atl 1411 1411 O____________O hurdat_atl AL021875 29.80 -60.10 HU 70 1 29.90 -58.50 HU 75 17 14
1875 NA NA 21:00:00 TS 30.69 -59.31 1513 1445 P____________P AL021875 30.73 -59.71 HU 70 1 30.60 -58.51 HU 72 18 17
1875 NA NA 1875-09-08 00:00:00 TS 31.57 -58.97 70 hurdat_atl 1435 1370 O____________O hurdat_atl AL021875 31.70 -59.20 HU 70 1 31.30 -58.50 HU 70 19 21
1875 NA NA 03:00:00 TS 32.42 -58.52 1370 1305 P____________P AL021875 32.63 -58.57 HU 70 1 32.01 -58.42 HU 70 18 25
1875 NA NA 06:00:00 TS 33.23 -58.03 70 hurdat_atl 1309 1253 O____________O hurdat_atl AL021875 33.50 -57.90 HU 70 1 32.70 -58.30 HU 70 17 26
1875 NA NA 09:00:00 TS 33.97 -57.62 1248 1210 P____________P AL021875 34.27 -57.33 HU 70 1 33.36 -58.21 HU 70 16 27
1875 NA NA 12:00:00 TS 34.67 -57.13 70 hurdat_atl 1205 1165 O____________O hurdat_atl AL021875 35.00 -56.70 HU 70 1 34.00 -58.00 HU 70 17 34
1875 NA NA 15:00:00 TS 35.38 -56.46 1157 1109 P____________P AL021875 35.75 -55.90 HU 70 1 34.64 -57.59 HU 70 19 40
1875 NA NA 18:00:00 TS 36.10 -55.67 70 hurdat_atl 1109 1068 O____________O hurdat_atl AL021875 36.50 -55.00 HU 70 1 35.30 -57.00 HU 70 20 42
1875 NA NA 21:00:00 TS 36.83 -54.82 1072 1012 P____________P AL021875 37.25 -54.08 HU 70 1 35.99 -56.31 HU 70 20 44
1875 NA NA 1875-09-09 00:00:00 TS 37.57 -53.90 70 hurdat_atl 1001 923 O____________O hurdat_atl AL021875 38.00 -53.10 HU 70 1 36.70 -55.50 HU 70 21 46
1875 NA NA 03:00:00 TS 38.30 -52.91 923 850 P____________P AL021875 38.75 -52.06 HU 70 1 37.39 -54.61 HU 70 21 47
1875 NA NA 06:00:00 TS 39.03 -51.90 70 hurdat_atl 851 776 O____________O hurdat_atl AL021875 39.50 -51.00 HU 70 1 38.10 -53.70 HU 70 22 46
1875 NA NA 09:00:00 TS 39.80 -50.92 778 722 P____________P AL021875 40.29 -49.94 HU 70 1 38.83 -52.88 HU 70 21 44
1875 NA NA 12:00:00 TS 40.53 -50.00 70 hurdat_atl 725 689 O____________O hurdat_atl AL021875 41.00 -49.00 HU 70 1 39.60 -52.00 HU 70 19 45
1875 NA NA 15:00:00 TS 41.15 -49.16 689 660 P____________P AL021875 41.51 -48.29 HU 70 1 40.43 -50.89 HU 70 17 45
1875 NA NA 18:00:00 TS 41.77 -48.37 70 hurdat_atl 655 634 O____________O hurdat_atl AL021875 42.00 -47.70 HU 70 1 41.30 -49.70 HU 70 18 41
1875 NA NA 21:00:00 TS 42.52 -47.56 634 621 P____________P AL021875 42.69 -47.04 HU 70 1 42.18 -48.60 HU 70 19 38
1875 NA NA 1875-09-10 00:00:00 TS 43.30 -46.77 70 hurdat_atl 621 619 O____________O hurdat_atl AL021875 43.40 -46.40 HU 70 1 43.10 -47.50 HU 70 19 38
1875 NA NA 03:00:00 TS 43.98 -45.99 626 626 P____________P AL021875 43.94 -45.79 HU 70 1 44.07 -46.39 HU 67 18 40
1875 NA NA 06:00:00 TS 44.67 -45.20 70 hurdat_atl 645 645 O____________O hurdat_atl AL021875 44.50 -45.20 HU 70 1 45.00 -45.20 HU 65 18 39
1875 NA NA 09:00:00 TS 45.41 -44.34 674 670 P____________P AL021875 45.22 -44.58 HU 70 1 45.79 -43.86 HU 65 20 40
1875 NA NA 12:00:00 TS 46.20 -43.36 70 hurdat_atl 711 711 O____________O hurdat_atl AL021875 46.00 -44.00 HU 70 1 46.50 -42.40 HU 65 22 44
1875 NA NA 15:00:00 TS 46.97 -42.15 782 782 P____________P AL021875 46.76 -43.48 HU 70 1 47.17 -40.83 HU 65 25 53
1875 NA NA 18:00:00 TS 47.70 -40.47 70 hurdat_atl 902 902 O____________O hurdat_atl AL021875 47.50 -43.00 HU 70 1 47.80 -39.20 HU 65 33 64
1875 NA NA 21:00:00 TS 48.42 -37.65 1107 1107 _____________P AL021875 HU -1 48.42 -37.65 HU 65 32 66
1875 NA NA 1875-09-11 00:00:00 TS 49.00 -36.00 1232 1232 _____________O -1 49.00 -36.00 HU 65 26 65
1875 NA NA 03:00:00 TS 49.51 -34.06 1304 1301 _____________P -1 49.51 -34.06 HU 65 28 69
1875 NA NA 06:00:00 TS 50.00 -32.00 1317 1314 _____________O -1 50.00 -32.00 HU 65 28 69
1875 NA NA 09:00:00 TS 50.50 -30.00 1340 1213 _____________P -1 50.50 -30.00 HU 62 27 69
1875 NA NA 12:00:00 ET 51.00 -28.00 1207 1067 _____________O -1 51.00 -28.00 EX 60 27 68
1875 NA NA 15:00:00 ET 51.51 -26.01 1060 923 _____________P -1 51.51 -26.01 EX 60 27 68
1875 NA NA 18:00:00 ET 52.00 -24.00 917 _____________O -1 52.00 -24.00 EX 60 27 68